Time,TemperatureF,DewpointF,PressureIn,WindDirection,WindDirectionDegrees,WindSpeedMPH,WindSpeedGustMPH,Humidity,HourlyPrecipIn,Conditions,Clouds,dailyrainin,SoftwareType,DateUTC
2013-06-26 00:11:00,76.0,70.0,-100.00,SE,125,7.0,11.0,83,-99.99,,,-99.99,,2013-06-26 05:11:00,
2013-06-26 00:22:00,76.0,70.0,-100.00,SE,125,7.0,11.0,83,-99.99,,,-99.99,,2013-06-26 05:22:00,
2013-06-26 00:52:00,75.0,69.0,-100.00,ESE,105,4.0,11.0,83,-99.99,,,-99.99,,2013-06-26 05:52:00,
2013-06-26 01:22:00,74.0,69.0,-100.00,ESE,120,5.0,11.0,84,-99.99,,,-99.99,,2013-06-26 06:22:00,
2013-06-26 01:43:00,74.0,69.0,-100.00,ESE,115,4.0,7.0,85,-99.99,,,-99.99,,2013-06-26 06:43:00,
2013-06-26 01:53:00,74.0,69.0,-100.00,ESE,115,4.0,7.0,85,-99.99,,,-99.99,,2013-06-26 06:53:00,
2013-06-26 02:11:00,74.0,70.0,-100.00,SE,130,6.0,11.0,87,-99.99,,,-99.99,,2013-06-26 07:11:00,
2013-06-26 02:22:00,74.0,70.0,-100.00,SE,130,6.0,11.0,87,-99.99,,,-99.99,,2013-06-26 07:22:00,
2013-06-26 02:53:00,75.0,71.0,-100.00,ESE,120,10.0,14.0,86,-99.99,,,-99.99,,2013-06-26 07:53:00,
2013-06-26 03:01:00,75.0,71.0,-100.00,ESE,120,10.0,14.0,86,-99.99,,,-99.99,,2013-06-26 08:01:00,
2013-06-26 03:22:00,75.0,71.0,-100.00,SE,125,8.0,14.0,87,-99.99,,,-99.99,,2013-06-26 08:22:00,
2013-06-26 03:42:00,75.0,72.0,-100.00,SE,135,7.0,15.0,89,-99.99,,,-99.99,,2013-06-26 08:42:00,
2013-06-26 03:53:00,75.0,72.0,-100.00,SE,135,7.0,15.0,89,-99.99,,,-99.99,,2013-06-26 08:53:00,
2013-06-26 04:11:00,75.0,72.0,-100.00,SE,130,8.0,14.0,89,-99.99,,,-99.99,,2013-06-26 09:11:00,
2013-06-26 04:22:00,75.0,72.0,-100.00,SE,130,8.0,14.0,89,-99.99,,,-99.99,,2013-06-26 09:22:00,
2013-06-26 04:43:00,76.0,72.0,-100.00,SSE,150,1.0,11.0,89,-99.99,,,-99.99,,2013-06-26 09:43:00,
2013-06-26 04:53:00,76.0,72.0,-100.00,SSE,150,1.0,11.0,89,-99.99,,,-99.99,,2013-06-26 09:53:00,
2013-06-26 05:12:00,69.0,68.0,-100.00,NNE,25,1.0,13.0,99,-99.99,,,-99.99,,2013-06-26 10:12:00,
2013-06-26 05:22:00,69.0,68.0,-100.00,NNE,25,1.0,13.0,99,-99.99,,,-99.99,,2013-06-26 10:22:00,
2013-06-26 05:43:00,68.0,-99.9,-100.00,SE,125,4.0,6.0,-999,-99.99,,,-99.99,,2013-06-26 10:43:00,
2013-06-26 05:53:00,68.0,-99.9,-100.00,SE,125,4.0,6.0,-999,-99.99,,,-99.99,,2013-06-26 10:53:00,
2013-06-26 06:12:00,68.0,-99.9,-100.00,East,85,1.0,5.0,-999,-99.99,,,-99.99,,2013-06-26 11:12:00,
2013-06-26 06:23:00,68.0,-99.9,-100.00,East,85,1.0,5.0,-999,-99.99,,,-99.99,,2013-06-26 11:23:00,
2013-06-26 06:44:00,67.0,-99.9,-100.00,South,175,1.0,4.0,-999,-99.99,,,-99.99,,2013-06-26 11:44:00,
2013-06-26 06:52:00,67.0,-99.9,-100.00,South,175,1.0,4.0,-999,-99.99,,,-99.99,,2013-06-26 11:52:00,
2013-06-26 07:12:00,67.0,-99.9,-100.00,SE,130,8.0,17.0,-999,-99.99,,,-99.99,,2013-06-26 12:12:00,
2013-06-26 07:22:00,67.0,-99.9,-100.00,SE,130,8.0,17.0,-999,-99.99,,,-99.99,,2013-06-26 12:22:00,
2013-06-26 07:43:00,68.0,-99.9,-100.00,South,170,1.0,6.0,-999,-99.99,,,-99.99,,2013-06-26 12:43:00,
2013-06-26 07:52:00,68.0,-99.9,-100.00,South,170,1.0,6.0,-999,-99.99,,,-99.99,,2013-06-26 12:52:00,
2013-06-26 08:23:00,68.0,-99.9,-100.00,SE,140,6.0,11.0,-999,-99.99,,,-99.99,,2013-06-26 13:23:00,
2013-06-26 08:43:00,68.0,-99.9,-100.00,SE,140,4.0,9.0,-999,-99.99,,,-99.99,,2013-06-26 13:43:00,
2013-06-26 08:53:00,68.0,-99.9,-100.00,SE,140,4.0,9.0,-999,-99.99,,,-99.99,,2013-06-26 13:53:00,
2013-06-26 09:12:00,70.0,70.0,-100.00,ESE,110,2.0,4.0,100,-99.99,,,-99.99,,2013-06-26 14:12:00,
2013-06-26 09:24:00,70.0,70.0,-100.00,ESE,110,2.0,4.0,100,-99.99,,,-99.99,,2013-06-26 14:24:00,
2013-06-26 09:42:00,72.0,72.0,-100.00,South,180,4.0,6.0,98,-99.99,,,-99.99,,2013-06-26 14:42:00,
2013-06-26 09:53:00,72.0,72.0,-100.00,South,180,4.0,6.0,98,-99.99,,,-99.99,,2013-06-26 14:53:00,
2013-06-26 10:22:00,73.0,72.0,-100.00,SE,130,5.0,10.0,96,-99.99,,,-99.99,,2013-06-26 15:22:00,
2013-06-26 10:53:00,74.0,73.0,-100.00,ENE,65,1.0,2.0,97,-99.99,,,-99.99,,2013-06-26 15:53:00,
2013-06-26 11:11:00,75.0,72.0,-100.00,East,100,0.0,6.0,91,-99.99,,,-99.99,,2013-06-26 16:11:00,
2013-06-26 11:22:00,75.0,72.0,-100.00,East,100,0.0,6.0,91,-99.99,,,-99.99,,2013-06-26 16:22:00,
2013-06-26 11:43:00,78.0,73.0,-100.00,SE,135,1.0,3.0,84,-99.99,,,-99.99,,2013-06-26 16:43:00,
2013-06-26 11:52:00,78.0,73.0,-100.00,SE,135,1.0,3.0,84,-99.99,,,-99.99,,2013-06-26 16:52:00,
2013-06-26 12:23:00,78.0,72.0,-100.00,North,5,1.0,3.0,83,-99.99,,,-99.99,,2013-06-26 17:23:00,
2013-06-26 12:43:00,81.0,73.0,-100.00,North,0,1.0,4.0,76,-99.99,,,-99.99,,2013-06-26 17:43:00,
2013-06-26 12:52:00,81.0,73.0,-100.00,North,0,1.0,4.0,76,-99.99,,,-99.99,,2013-06-26 17:52:00,
2013-06-26 13:22:00,82.0,73.0,-100.00,SSE,150,5.0,9.0,75,-99.99,,,-99.99,,2013-06-26 18:22:00,
2013-06-26 13:43:00,84.0,74.0,-100.00,SSE,155,1.0,6.0,74,-99.99,,,-99.99,,2013-06-26 18:43:00,
2013-06-26 13:52:00,84.0,74.0,-100.00,SSE,155,1.0,6.0,74,-99.99,,,-99.99,,2013-06-26 18:52:00,
2013-06-26 14:22:00,83.0,75.0,-100.00,East,95,1.0,5.0,77,-99.99,,,-99.99,,2013-06-26 19:22:00,
2013-06-26 14:33:00,83.0,75.0,-100.00,East,95,1.0,5.0,77,-99.99,,,-99.99,,2013-06-26 19:33:00,
2013-06-26 14:42:00,82.0,73.0,-100.00,WNW,300,1.0,4.0,74,-99.99,,,-99.99,,2013-06-26 19:42:00,
2013-06-26 14:52:00,82.0,73.0,-100.00,WNW,300,1.0,4.0,74,-99.99,,,-99.99,,2013-06-26 19:52:00,
2013-06-26 15:01:00,82.0,73.0,-100.00,WNW,300,1.0,4.0,74,-99.99,,,-99.99,,2013-06-26 20:01:00,
2013-06-26 15:22:00,85.0,72.0,-100.00,South,180,3.0,6.0,67,-99.99,,,-99.99,,2013-06-26 20:22:00,
2013-06-26 15:33:00,84.0,74.0,-100.00,SE,135,3.0,6.0,71,-99.99,,,-99.99,,2013-06-26 20:33:00,
2013-06-26 15:43:00,84.0,73.0,-100.00,SE,140,1.0,6.0,69,-99.99,,,-99.99,,2013-06-26 20:43:00,
2013-06-26 15:52:00,84.0,73.0,-100.00,SE,140,1.0,6.0,69,-99.99,,,-99.99,,2013-06-26 20:52:00,
2013-06-26 16:02:00,84.0,74.0,-100.00,South,170,1.0,6.0,71,-99.99,,,-99.99,,2013-06-26 21:02:00,
2013-06-26 16:11:00,85.0,75.0,-100.00,NNW,345,0.0,5.0,74,-99.99,,,-99.99,,2013-06-26 21:11:00,
2013-06-26 16:23:00,85.0,75.0,-100.00,NNW,345,0.0,5.0,74,-99.99,,,-99.99,,2013-06-26 21:23:00,
2013-06-26 16:43:00,85.0,74.0,-100.00,East,95,1.0,6.0,71,-99.99,,,-99.99,,2013-06-26 21:43:00,
2013-06-26 16:52:00,85.0,74.0,-100.00,East,95,1.0,6.0,71,-99.99,,,-99.99,,2013-06-26 21:52:00,
2013-06-26 17:11:00,85.0,77.0,-100.00,East,90,0.0,3.0,77,-99.99,,,-99.99,,2013-06-26 22:11:00,
2013-06-26 17:22:00,85.0,77.0,-100.00,East,90,0.0,3.0,77,-99.99,,,-99.99,,2013-06-26 22:22:00,
2013-06-26 17:43:00,82.0,77.0,-100.00,West,265,0.0,2.0,84,-99.99,,,-99.99,,2013-06-26 22:43:00,
2013-06-26 17:52:00,82.0,77.0,-100.00,West,265,0.0,2.0,84,-99.99,,,-99.99,,2013-06-26 22:52:00,
2013-06-26 18:22:00,85.0,77.0,-100.00,WNW,295,0.0,2.0,78,-99.99,,,-99.99,,2013-06-26 23:22:00,
2013-06-26 18:43:00,83.0,75.0,-100.00,WSW,255,0.0,4.0,78,-99.99,,,-99.99,,2013-06-26 23:43:00,
2013-06-26 18:53:00,83.0,75.0,-100.00,WSW,255,0.0,4.0,78,-99.99,,,-99.99,,2013-06-26 23:53:00,
2013-06-26 19:01:00,82.0,74.0,-100.00,SSE,160,1.0,3.0,78,-99.99,,,-99.99,,2013-06-27 00:01:00,
2013-06-26 19:12:00,82.0,75.0,-100.00,WSW,240,1.0,2.0,81,-99.99,,,-99.99,,2013-06-27 00:12:00,
2013-06-26 19:22:00,82.0,75.0,-100.00,WSW,240,1.0,2.0,81,-99.99,,,-99.99,,2013-06-27 00:22:00,
2013-06-26 19:33:00,82.0,75.0,-100.00,WSW,240,1.0,2.0,81,-99.99,,,-99.99,,2013-06-27 00:33:00,
2013-06-26 19:53:00,84.0,75.0,-100.00,South,170,2.0,4.0,75,-99.99,,,-99.99,,2013-06-27 00:53:00,
2013-06-26 20:11:00,81.0,76.0,-100.00,SW,215,0.0,1.0,83,-99.99,,,-99.99,,2013-06-27 01:11:00,
2013-06-26 20:21:00,81.0,76.0,-100.00,SW,215,0.0,1.0,83,-99.99,,,-99.99,,2013-06-27 01:21:00,
2013-06-26 20:43:00,80.0,76.0,-100.00,WSW,250,0.0,1.0,86,-99.99,,,-99.99,,2013-06-27 01:43:00,
2013-06-26 20:53:00,80.0,76.0,-100.00,WSW,250,0.0,1.0,86,-99.99,,,-99.99,,2013-06-27 01:53:00,
2013-06-26 21:11:00,79.0,76.0,-100.00,SW,215,0.0,0.0,91,-99.99,,,-99.99,,2013-06-27 02:11:00,
2013-06-26 21:22:00,79.0,76.0,-100.00,SW,215,0.0,0.0,91,-99.99,,,-99.99,,2013-06-27 02:22:00,
2013-06-26 21:42:00,78.0,76.0,-100.00,WSW,240,0.0,1.0,93,-99.99,,,-99.99,,2013-06-27 02:42:00,
2013-06-26 21:52:00,78.0,76.0,-100.00,WSW,240,0.0,1.0,93,-99.99,,,-99.99,,2013-06-27 02:52:00,
2013-06-26 22:11:00,76.0,75.0,-100.00,NW,325,0.0,0.0,97,-99.99,,,-99.99,,2013-06-27 03:11:00,
2013-06-26 22:21:00,76.0,75.0,-100.00,NW,325,0.0,0.0,97,-99.99,,,-99.99,,2013-06-27 03:21:00,
2013-06-26 22:52:00,76.0,75.0,-100.00,SE,130,1.0,1.0,98,-99.99,,,-99.99,,2013-06-27 03:52:00,
2013-06-26 23:11:00,76.0,75.0,-100.00,NW,305,2.0,4.0,98,-99.99,,,-99.99,,2013-06-27 04:11:00,
2013-06-26 23:22:00,76.0,75.0,-100.00,NW,305,2.0,4.0,98,-99.99,,,-99.99,,2013-06-27 04:22:00,
2013-06-26 23:42:00,75.0,75.0,-100.00,NNW,330,1.0,2.0,98,-99.99,,,-99.99,,2013-06-27 04:42:00,
2013-06-26 23:53:00,75.0,75.0,-100.00,NNW,330,1.0,2.0,98,-99.99,,,-99.99,,2013-06-27 04:53:00,